sensor_id;sensor_type;location;lat;lon;timestamp;pressure;altitude;pressure_sealevel;temperature;humidity
44457;BME280;30159;49.316;8.558;2024-02-26T00:00:01;98465.81;;;9.16;79.00
44457;BME280;30159;49.316;8.558;2024-02-26T00:02:30;98467.22;;;9.13;79.34
44457;BME280;30159;49.316;8.558;2024-02-26T00:04:57;98464.41;;;9.10;80.04
44457;BME280;30159;49.316;8.558;2024-02-26T00:07:23;98471.50;;;9.05;80.44
44457;BME280;30159;49.316;8.558;2024-02-26T00:09:50;98456.94;;;9.06;79.42
44457;BME280;30159;49.316;8.558;2024-02-26T00:12:17;98487.31;;;9.16;79.53
44457;BME280;30159;49.316;8.558;2024-02-26T00:14:43;98493.97;;;9.18;79.47
44457;BME280;30159;49.316;8.558;2024-02-26T00:17:12;98504.28;;;9.16;79.82
44457;BME280;30159;49.316;8.558;2024-02-26T00:19:41;98503.63;;;9.28;80.79
44457;BME280;30159;49.316;8.558;2024-02-26T00:22:08;98509.00;;;9.28;80.77
44457;BME280;30159;49.316;8.558;2024-02-26T00:24:35;98499.19;;;9.32;81.09
44457;BME280;30159;49.316;8.558;2024-02-26T00:27:01;98496.78;;;9.39;81.72
44457;BME280;30159;49.316;8.558;2024-02-26T00:29:28;98503.00;;;9.40;81.62
44457;BME280;30159;49.316;8.558;2024-02-26T00:31:55;98508.53;;;9.26;82.70
44457;BME280;30159;49.316;8.558;2024-02-26T00:34:21;98503.16;;;9.26;82.90
44457;BME280;30159;49.316;8.558;2024-02-26T00:36:49;98518.19;;;9.27;83.01
44457;BME280;30159;49.316;8.558;2024-02-26T00:39:16;98512.31;;;9.25;83.38
44457;BME280;30159;49.316;8.558;2024-02-26T00:41:43;98518.03;;;9.23;84.34
44457;BME280;30159;49.316;8.558;2024-02-26T00:44:09;98519.91;;;9.23;84.82
44457;BME280;30159;49.316;8.558;2024-02-26T00:46:36;98512.31;;;9.25;84.75
44457;BME280;30159;49.316;8.558;2024-02-26T00:49:03;98504.56;;;9.06;84.62
44457;BME280;30159;49.316;8.558;2024-02-26T00:51:30;98521.03;;;9.13;85.24
44457;BME280;30159;49.316;8.558;2024-02-26T00:53:58;98522.31;;;9.07;84.26
44457;BME280;30159;49.316;8.558;2024-02-26T00:56:24;98522.63;;;9.14;84.56
44457;BME280;30159;49.316;8.558;2024-02-26T00:58:51;98524.19;;;9.15;83.38
44457;BME280;30159;49.316;8.558;2024-02-26T01:01:18;98508.84;;;9.16;83.69
44457;BME280;30159;49.316;8.558;2024-02-26T01:03:45;98499.69;;;9.17;83.27
44457;BME280;30159;49.316;8.558;2024-02-26T01:06:11;98510.72;;;9.06;82.85
44457;BME280;30159;49.316;8.558;2024-02-26T01:08:38;98523.41;;;9.15;83.58
44457;BME280;30159;49.316;8.558;2024-02-26T01:11:06;98523.88;;;9.17;84.15
44457;BME280;30159;49.316;8.558;2024-02-26T01:13:33;98534.31;;;9.18;84.04
44457;BME280;30159;49.316;8.558;2024-02-26T01:15:59;98540.50;;;9.19;85.06
44457;BME280;30159;49.316;8.558;2024-02-26T01:18:26;98540.47;;;9.10;83.88
44457;BME280;30159;49.316;8.558;2024-02-26T01:20:53;98553.28;;;8.96;84.66
44457;BME280;30159;49.316;8.558;2024-02-26T01:23:20;98561.66;;;8.94;87.00
44457;BME280;30159;49.316;8.558;2024-02-26T01:25:46;98440.63;;;8.42;85.76
44457;BME280;30159;49.316;8.558;2024-02-26T01:28:16;98542.06;;;9.20;85.40
44457;BME280;30159;49.316;8.558;2024-02-26T01:30:43;98558.53;;;9.27;85.53
44457;BME280;30159;49.316;8.558;2024-02-26T01:33:09;98534.81;;;9.12;84.84
44457;BME280;30159;49.316;8.558;2024-02-26T01:35:36;98553.00;;;9.23;85.07
44457;BME280;30159;49.316;8.558;2024-02-26T01:38:03;98553.16;;;9.10;85.98
44457;BME280;30159;49.316;8.558;2024-02-26T01:40:30;98553.47;;;9.25;88.11
44457;BME280;30159;49.316;8.558;2024-02-26T01:42:56;98520.22;;;9.13;88.86
44457;BME280;30159;49.316;8.558;2024-02-26T01:45:24;98555.06;;;9.35;90.05
44457;BME280;30159;49.316;8.558;2024-02-26T01:47:51;98524.66;;;9.08;91.57
44457;BME280;30159;49.316;8.558;2024-02-26T01:50:18;98551.09;;;9.24;92.36
44457;BME280;30159;49.316;8.558;2024-02-26T01:52:46;98557.88;;;9.13;95.68
44457;BME280;30159;49.316;8.558;2024-02-26T01:55:13;98546.47;;;8.98;95.23
44457;BME280;30159;49.316;8.558;2024-02-26T01:57:40;98552.97;;;9.06;95.71
44457;BME280;30159;49.316;8.558;2024-02-26T02:00:08;98536.38;;;9.13;96.63
44457;BME280;30159;49.316;8.558;2024-02-26T02:02:38;98562.34;;;9.26;96.58
44457;BME280;30159;49.316;8.558;2024-02-26T02:05:08;98552.81;;;9.20;97.38
44457;BME280;30159;49.316;8.558;2024-02-26T02:07:35;98558.03;;;9.25;98.79
44457;BME280;30159;49.316;8.558;2024-02-26T02:10:03;98554.56;;;9.24;99.76
44457;BME280;30159;49.316;8.558;2024-02-26T02:12:30;98556.00;;;9.31;100.00
44457;BME280;30159;49.316;8.558;2024-02-26T02:14:58;98554.28;;;9.35;99.76
44457;BME280;30159;49.316;8.558;2024-02-26T02:17:24;98558.03;;;9.25;100.00
44457;BME280;30159;49.316;8.558;2024-02-26T02:19:53;98566.75;;;9.22;100.00
44457;BME280;30159;49.316;8.558;2024-02-26T02:22:21;98565.97;;;9.13;100.00
44457;BME280;30159;49.316;8.558;2024-02-26T02:24:48;98560.56;;;9.13;100.00
44457;BME280;30159;49.316;8.558;2024-02-26T02:27:15;98575.56;;;8.96;100.00
44457;BME280;30159;49.316;8.558;2024-02-26T02:29:42;98569.28;;;9.10;100.00
44457;BME280;30159;49.316;8.558;2024-02-26T02:32:09;98566.56;;;9.01;100.00
44457;BME280;30159;49.316;8.558;2024-02-26T02:34:35;98573.22;;;9.03;100.00
44457;BME280;30159;49.316;8.558;2024-02-26T02:37:02;98571.13;;;8.83;100.00
44457;BME280;30159;49.316;8.558;2024-02-26T02:39:31;98578.88;;;8.84;100.00
44457;BME280;30159;49.316;8.558;2024-02-26T02:41:57;98567.94;;;8.81;100.00
44457;BME280;30159;49.316;8.558;2024-02-26T02:44:24;98564.50;;;8.89;100.00
44457;BME280;30159;49.316;8.558;2024-02-26T02:46:50;98564.50;;;8.89;100.00
44457;BME280;30159;49.316;8.558;2024-02-26T02:49:18;98556.28;;;8.94;100.00
44457;BME280;30159;49.316;8.558;2024-02-26T02:51:45;98557.06;;;8.95;100.00
44457;BME280;30159;49.316;8.558;2024-02-26T02:54:12;98553.28;;;9.13;100.00
44457;BME280;30159;49.316;8.558;2024-02-26T02:56:40;98553.78;;;9.24;100.00
44457;BME280;30159;49.316;8.558;2024-02-26T02:59:06;98553.78;;;9.24;100.00
44457;BME280;30159;49.316;8.558;2024-02-26T03:01:33;98495.25;;;8.86;100.00
44457;BME280;30159;49.316;8.558;2024-02-26T03:03:59;98561.38;;;9.31;100.00
44457;BME280;30159;49.316;8.558;2024-02-26T03:06:26;98564.06;;;9.22;100.00
44457;BME280;30159;49.316;8.558;2024-02-26T03:08:53;98564.22;;;9.17;100.00
44457;BME280;30159;49.316;8.558;2024-02-26T03:11:20;98570.09;;;9.19;100.00
44457;BME280;30159;49.316;8.558;2024-02-26T03:13:48;98566.75;;;9.22;100.00
44457;BME280;30159;49.316;8.558;2024-02-26T03:16:17;98553.16;;;9.10;100.00
44457;BME280;30159;49.316;8.558;2024-02-26T03:18:43;98539.84;;;9.04;100.00
44457;BME280;30159;49.316;8.558;2024-02-26T03:21:10;98573.72;;;9.23;100.00
44457;BME280;30159;49.316;8.558;2024-02-26T03:23:37;98568.34;;;9.14;100.00
44457;BME280;30159;49.316;8.558;2024-02-26T03:26:03;98581.94;;;9.18;100.00
44457;BME280;30159;49.316;8.558;2024-02-26T03:28:30;98574.19;;;9.16;100.00
44457;BME280;30159;49.316;8.558;2024-02-26T03:30:59;98568.03;;;9.07;100.00
44457;BME280;30159;49.316;8.558;2024-02-26T03:33:27;98540.00;;;8.91;100.00
44457;BME280;30159;49.316;8.558;2024-02-26T03:35:54;98564.31;;;8.85;100.00
44457;BME280;30159;49.316;8.558;2024-02-26T03:38:20;98539.47;;;8.62;100.00
44457;BME280;30159;49.316;8.558;2024-02-26T03:40:47;98551.22;;;8.84;100.00
44457;BME280;30159;49.316;8.558;2024-02-26T03:43:13;98542.03;;;8.85;100.00
44457;BME280;30159;49.316;8.558;2024-02-26T03:45:40;98544.56;;;8.90;100.00
44457;BME280;30159;49.316;8.558;2024-02-26T03:48:08;98532.72;;;8.91;100.00
44457;BME280;30159;49.316;8.558;2024-02-26T03:50:35;98543.31;;;8.96;100.00
44457;BME280;30159;49.316;8.558;2024-02-26T03:53:01;98546.63;;;8.93;100.00
44457;BME280;30159;49.316;8.558;2024-02-26T03:55:28;98539.66;;;8.92;100.00
44457;BME280;30159;49.316;8.558;2024-02-26T03:57:55;98537.44;;;8.85;100.00
44457;BME280;30159;49.316;8.558;2024-02-26T04:00:22;98535.50;;;8.69;100.00
44457;BME280;30159;49.316;8.558;2024-02-26T04:02:50;98523.19;;;8.76;100.00
44457;BME280;30159;49.316;8.558;2024-02-26T04:05:19;98529.19;;;8.73;100.00
44457;BME280;30159;49.316;8.558;2024-02-26T04:07:45;98516.22;;;8.58;100.00
44457;BME280;30159;49.316;8.558;2024-02-26T04:10:12;98525.66;;;8.55;100.00
44457;BME280;30159;49.316;8.558;2024-02-26T04:12:39;98492.75;;;8.41;100.00
44457;BME280;30159;49.316;8.558;2024-02-26T04:15:07;98499.59;;;8.47;100.00
44457;BME280;30159;49.316;8.558;2024-02-26T04:17:34;98501.19;;;8.17;100.00
44457;BME280;30159;49.316;8.558;2024-02-26T04:20:01;98476.63;;;8.01;100.00
44457;BME280;30159;49.316;8.558;2024-02-26T04:22:29;98507.44;;;8.35;100.00
44457;BME280;30159;49.316;8.558;2024-02-26T04:24:56;98499.91;;;8.14;100.00
44457;BME280;30159;49.316;8.558;2024-02-26T04:27:23;98490.84;;;7.93;100.00
44457;BME280;30159;49.316;8.558;2024-02-26T04:29:49;98501.78;;;8.05;100.00
44457;BME280;30159;49.316;8.558;2024-02-26T04:32:16;98489.56;;;7.99;100.00
44457;BME280;30159;49.316;8.558;2024-02-26T04:34:42;98459.63;;;7.74;100.00
44457;BME280;30159;49.316;8.558;2024-02-26T04:37:09;98479.25;;;7.84;100.00
44457;BME280;30159;49.316;8.558;2024-02-26T04:39:37;98492.25;;;7.90;100.00
44457;BME280;30159;49.316;8.558;2024-02-26T04:42:04;98489.66;;;7.85;100.00
44457;BME280;30159;49.316;8.558;2024-02-26T04:44:31;98490.16;;;7.87;100.00
44457;BME280;30159;49.316;8.558;2024-02-26T04:46:58;98488.75;;;7.90;100.00
44457;BME280;30159;49.316;8.558;2024-02-26T04:49:24;98498.41;;;7.99;100.00
44457;BME280;30159;49.316;8.558;2024-02-26T04:51:51;98492.59;;;8.06;100.00
44457;BME280;30159;49.316;8.558;2024-02-26T04:54:20;98492.66;;;8.15;100.00
44457;BME280;30159;49.316;8.558;2024-02-26T04:56:48;98503.47;;;8.32;100.00
44457;BME280;30159;49.316;8.558;2024-02-26T04:59:15;98501.41;;;8.38;100.00
44457;BME280;30159;49.316;8.558;2024-02-26T05:01:44;98507.00;;;8.41;100.00
44457;BME280;30159;49.316;8.558;2024-02-26T05:04:11;98510.03;;;8.57;100.00
44457;BME280;30159;49.316;8.558;2024-02-26T05:06:37;98510.03;;;8.57;100.00
44457;BME280;30159;49.316;8.558;2024-02-26T05:09:04;98505.59;;;8.53;100.00
44457;BME280;30159;49.316;8.558;2024-02-26T05:11:31;98503.22;;;8.51;100.00
44457;BME280;30159;49.316;8.558;2024-02-26T05:13:59;98515.84;;;8.51;100.00
44457;BME280;30159;49.316;8.558;2024-02-26T05:16:26;98512.72;;;8.49;100.00
44457;BME280;30159;49.316;8.558;2024-02-26T05:18:53;98514.31;;;8.58;100.00
44457;BME280;30159;49.316;8.558;2024-02-26T05:21:19;98515.41;;;8.57;100.00
44457;BME280;30159;49.316;8.558;2024-02-26T05:23:46;98522.03;;;8.51;100.00
44457;BME280;30159;49.316;8.558;2024-02-26T05:26:19;98513.50;;;8.49;100.00
44457;BME280;30159;49.316;8.558;2024-02-26T05:28:46;98528.66;;;8.45;100.00
44457;BME280;30159;49.316;8.558;2024-02-26T05:31:14;98524.72;;;8.51;100.00
44457;BME280;30159;49.316;8.558;2024-02-26T05:33:40;98525.00;;;8.41;100.00
44457;BME280;30159;49.316;8.558;2024-02-26T05:36:07;98522.00;;;8.42;100.00
44457;BME280;30159;49.316;8.558;2024-02-26T05:38:33;98517.91;;;8.45;100.00
44457;BME280;30159;49.316;8.558;2024-02-26T05:41:01;98529.47;;;8.54;100.00
44457;BME280;30159;49.316;8.558;2024-02-26T05:43:28;98536.06;;;8.48;100.00
44457;BME280;30159;49.316;8.558;2024-02-26T05:45:54;98543.88;;;8.58;100.00
44457;BME280;30159;49.316;8.558;2024-02-26T05:48:22;98534.84;;;8.54;100.00
44457;BME280;30159;49.316;8.558;2024-02-26T05:50:49;98540.19;;;8.46;100.00
44457;BME280;30159;49.316;8.558;2024-02-26T05:53:15;98550.41;;;8.35;100.00
44457;BME280;30159;49.316;8.558;2024-02-26T05:55:42;98536.69;;;8.05;100.00
44457;BME280;30159;49.316;8.558;2024-02-26T05:58:09;98563.34;;;8.33;100.00
44457;BME280;30159;49.316;8.558;2024-02-26T06:00:35;98565.69;;;8.34;100.00
44457;BME280;30159;49.316;8.558;2024-02-26T06:03:02;98570.44;;;8.29;100.00
44457;BME280;30159;49.316;8.558;2024-02-26T06:05:30;98581.94;;;8.20;100.00
44457;BME280;30159;49.316;8.558;2024-02-26T06:07:57;98553.13;;;7.81;100.00
44457;BME280;30159;49.316;8.558;2024-02-26T06:10:23;98591.28;;;8.00;100.00
44457;BME280;30159;49.316;8.558;2024-02-26T06:12:50;98580.00;;;7.90;100.00
44457;BME280;30159;49.316;8.558;2024-02-26T06:15:16;98594.84;;;7.87;100.00
44457;BME280;30159;49.316;8.558;2024-02-26T06:17:43;98598.19;;;7.93;100.00
44457;BME280;30159;49.316;8.558;2024-02-26T06:20:10;98606.75;;;7.95;100.00
44457;BME280;30159;49.316;8.558;2024-02-26T06:22:40;98612.28;;;7.98;100.00
44457;BME280;30159;49.316;8.558;2024-02-26T06:25:07;98616.38;;;7.96;100.00
44457;BME280;30159;49.316;8.558;2024-02-26T06:27:34;98621.75;;;7.96;100.00
44457;BME280;30159;49.316;8.558;2024-02-26T06:30:01;98622.53;;;7.96;100.00
44457;BME280;30159;49.316;8.558;2024-02-26T06:32:28;98624.78;;;8.03;100.00
44457;BME280;30159;49.316;8.558;2024-02-26T06:34:54;98620.03;;;8.00;100.00
44457;BME280;30159;49.316;8.558;2024-02-26T06:37:21;98622.09;;;7.80;100.00
44457;BME280;30159;49.316;8.558;2024-02-26T06:39:49;98626.63;;;7.94;100.00
44457;BME280;30159;49.316;8.558;2024-02-26T06:42:17;98583.66;;;7.71;100.00
44457;BME280;30159;49.316;8.558;2024-02-26T06:44:43;98623.81;;;7.99;100.00
44457;BME280;30159;49.316;8.558;2024-02-26T06:47:10;98606.56;;;7.91;100.00
44457;BME280;30159;49.316;8.558;2024-02-26T06:49:38;98625.28;;;8.05;100.00
44457;BME280;30159;49.316;8.558;2024-02-26T06:52:05;98635.94;;;8.19;100.00
44457;BME280;30159;49.316;8.558;2024-02-26T06:54:31;98640.63;;;8.13;100.00
44457;BME280;30159;49.316;8.558;2024-02-26T06:57:00;98631.41;;;8.28;100.00
44457;BME280;30159;49.316;8.558;2024-02-26T06:59:26;98636.50;;;8.38;100.00
44457;BME280;30159;49.316;8.558;2024-02-26T07:01:53;98647.09;;;8.35;100.00
44457;BME280;30159;49.316;8.558;2024-02-26T07:04:20;98647.84;;;8.49;100.00
44457;BME280;30159;49.316;8.558;2024-02-26T07:06:47;98642.03;;;8.56;100.00
44457;BME280;30159;49.316;8.558;2024-02-26T07:09:13;98641.94;;;8.70;100.00
44457;BME280;30159;49.316;8.558;2024-02-26T07:11:41;98652.56;;;8.83;100.00
44457;BME280;30159;49.316;8.558;2024-02-26T07:14:11;98649.13;;;8.92;100.00
44457;BME280;30159;49.316;8.558;2024-02-26T07:16:38;98648.97;;;8.97;100.00
44457;BME280;30159;49.316;8.558;2024-02-26T07:19:05;98657.22;;;9.00;100.00
44457;BME280;30159;49.316;8.558;2024-02-26T07:21:31;98644.84;;;8.99;100.00
44457;BME280;30159;49.316;8.558;2024-02-26T07:23:59;98645.78;;;8.95;100.00
44457;BME280;30159;49.316;8.558;2024-02-26T07:26:25;98657.38;;;8.95;100.00
44457;BME280;30159;49.316;8.558;2024-02-26T07:28:52;98659.91;;;9.00;100.00
44457;BME280;30159;49.316;8.558;2024-02-26T07:31:20;98652.13;;;8.99;100.00
44457;BME280;30159;49.316;8.558;2024-02-26T07:33:47;98661.00;;;8.59;100.00
44457;BME280;30159;49.316;8.558;2024-02-26T07:36:13;98659.72;;;8.57;100.00
44457;BME280;30159;49.316;8.558;2024-02-26T07:38:40;98663.69;;;8.59;100.00
44457;BME280;30159;49.316;8.558;2024-02-26T07:41:06;98666.44;;;8.46;100.00
44457;BME280;30159;49.316;8.558;2024-02-26T07:43:33;98662.50;;;8.20;100.00
44457;BME280;30159;49.316;8.558;2024-02-26T07:46:00;98655.31;;;8.07;100.00
44457;BME280;30159;49.316;8.558;2024-02-26T07:48:28;98661.88;;;8.23;100.00
44457;BME280;30159;49.316;8.558;2024-02-26T07:50:55;98666.63;;;8.27;100.00
44457;BME280;30159;49.316;8.558;2024-02-26T07:53:21;98663.31;;;8.30;100.00
44457;BME280;30159;49.316;8.558;2024-02-26T07:55:48;98660.03;;;8.33;100.00
44457;BME280;30159;49.316;8.558;2024-02-26T07:58:14;98665.72;;;8.54;100.00
44457;BME280;30159;49.316;8.558;2024-02-26T08:00:41;98661.56;;;8.79;100.00
44457;BME280;30159;49.316;8.558;2024-02-26T08:03:09;98662.25;;;8.93;100.00
44457;BME280;30159;49.316;8.558;2024-02-26T08:05:37;98658.75;;;8.84;100.00
44457;BME280;30159;49.316;8.558;2024-02-26T08:08:06;98662.22;;;8.84;100.00
44457;BME280;30159;49.316;8.558;2024-02-26T08:10:33;98665.94;;;9.15;100.00
44457;BME280;30159;49.316;8.558;2024-02-26T08:12:59;98659.50;;;9.33;100.00
44457;BME280;30159;49.316;8.558;2024-02-26T08:15:30;98676.63;;;9.55;100.00
44457;BME280;30159;49.316;8.558;2024-02-26T08:17:57;98677.13;;;9.57;100.00
44457;BME280;30159;49.316;8.558;2024-02-26T08:20:25;98658.44;;;9.69;100.00
44457;BME280;30159;49.316;8.558;2024-02-26T08:22:53;98677.28;;;9.69;100.00
44457;BME280;30159;49.316;8.558;2024-02-26T08:25:20;98677.44;;;9.73;100.00
44457;BME280;30159;49.316;8.558;2024-02-26T08:27:46;98683.63;;;9.73;100.00
44457;BME280;30159;49.316;8.558;2024-02-26T08:30:14;98673.31;;;9.75;100.00
44457;BME280;30159;49.316;8.558;2024-02-26T08:32:42;98687.09;;;9.65;100.00
44457;BME280;30159;49.316;8.558;2024-02-26T08:35:09;98671.09;;;9.86;100.00
44457;BME280;30159;49.316;8.558;2024-02-26T08:37:36;98664.59;;;9.78;100.00
44457;BME280;30159;49.316;8.558;2024-02-26T08:40:05;98666.66;;;9.90;100.00
44457;BME280;30159;49.316;8.558;2024-02-26T08:42:32;98659.72;;;9.80;100.00
44457;BME280;30159;49.316;8.558;2024-02-26T08:44:59;98665.25;;;9.75;100.00
44457;BME280;30159;49.316;8.558;2024-02-26T08:47:26;98679.66;;;9.97;100.00
44457;BME280;30159;49.316;8.558;2024-02-26T08:49:53;98668.25;;;9.82;100.00
44457;BME280;30159;49.316;8.558;2024-02-26T08:52:20;98691.38;;;9.75;100.00
44457;BME280;30159;49.316;8.558;2024-02-26T08:54:48;98694.38;;;9.73;100.00
44457;BME280;30159;49.316;8.558;2024-02-26T08:57:16;98664.63;;;9.96;100.00
44457;BME280;30159;49.316;8.558;2024-02-26T08:59:43;98679.31;;;10.07;100.00
44457;BME280;30159;49.316;8.558;2024-02-26T09:02:09;98673.97;;;9.98;100.00
44457;BME280;30159;49.316;8.558;2024-02-26T09:04:36;98695.81;;;10.05;100.00
44457;BME280;30159;49.316;8.558;2024-02-26T09:07:03;98667.78;;;9.98;100.00
44457;BME280;30159;49.316;8.558;2024-02-26T09:09:29;98704.38;;;10.42;100.00
44457;BME280;30159;49.316;8.558;2024-02-26T09:11:56;98703.25;;;10.17;100.00
44457;BME280;30159;49.316;8.558;2024-02-26T09:14:24;98548.88;;;9.00;100.00
44457;BME280;30159;49.316;8.558;2024-02-26T09:16:50;98696.13;;;10.04;100.00
44457;BME280;30159;49.316;8.558;2024-02-26T09:19:17;98700.72;;;9.95;100.00
44457;BME280;30159;49.316;8.558;2024-02-26T09:21:44;98704.84;;;10.01;100.00
44457;BME280;30159;49.316;8.558;2024-02-26T09:24:11;98705.97;;;10.26;100.00
44457;BME280;30159;49.316;8.558;2024-02-26T09:26:38;98710.72;;;10.38;100.00
44457;BME280;30159;49.316;8.558;2024-02-26T09:29:04;98711.97;;;10.49;100.00
44457;BME280;30159;49.316;8.558;2024-02-26T09:31:32;98715.78;;;10.13;100.00
44457;BME280;30159;49.316;8.558;2024-02-26T09:34:00;98707.09;;;10.33;100.00
44457;BME280;30159;49.316;8.558;2024-02-26T09:36:26;98707.47;;;10.70;100.00
44457;BME280;30159;49.316;8.558;2024-02-26T09:38:53;98689.94;;;10.38;100.00
44457;BME280;30159;49.316;8.558;2024-02-26T09:41:20;98713.72;;;10.19;100.00
44457;BME280;30159;49.316;8.558;2024-02-26T09:43:48;98728.16;;;10.49;100.00
44457;BME280;30159;49.316;8.558;2024-02-26T09:46:17;98726.41;;;10.36;100.00
44457;BME280;30159;49.316;8.558;2024-02-26T09:48:47;98732.59;;;10.45;100.00
44457;BME280;30159;49.316;8.558;2024-02-26T09:51:14;98728.94;;;10.49;100.00
44457;BME280;30159;49.316;8.558;2024-02-26T09:53:42;98725.22;;;10.71;100.00
44457;BME280;30159;49.316;8.558;2024-02-26T09:56:11;98723.84;;;10.65;100.00
44457;BME280;30159;49.316;8.558;2024-02-26T09:58:39;98720.03;;;10.66;100.00
44457;BME280;30159;49.316;8.558;2024-02-26T10:01:11;98668.09;;;10.40;100.00
44457;BME280;30159;49.316;8.558;2024-02-26T10:03:39;98727.63;;;10.64;100.00
44457;BME280;30159;49.316;8.558;2024-02-26T10:06:10;98705.31;;;10.46;100.00
44457;BME280;30159;49.316;8.558;2024-02-26T10:08:37;98725.59;;;10.61;100.00
44457;BME280;30159;49.316;8.558;2024-02-26T10:11:05;98717.41;;;10.87;100.00
44457;BME280;30159;49.316;8.558;2024-02-26T10:13:31;98728.81;;;10.93;100.00
44457;BME280;30159;49.316;8.558;2024-02-26T10:15:58;98714.75;;;10.79;100.00
44457;BME280;30159;49.316;8.558;2024-02-26T10:18:44;98684.34;;;10.61;100.00
44457;BME280;30159;49.316;8.558;2024-02-26T10:21:12;98731.88;;;10.83;100.00
44457;BME280;30159;49.316;8.558;2024-02-26T10:23:41;98729.38;;;10.69;100.00
44457;BME280;30159;49.316;8.558;2024-02-26T10:26:10;98744.09;;;10.71;100.00
44457;BME280;30159;49.316;8.558;2024-02-26T10:28:37;98743.16;;;10.67;100.00
44457;BME280;30159;49.316;8.558;2024-02-26T10:31:03;98737.09;;;10.88;100.00
44457;BME280;30159;49.316;8.558;2024-02-26T10:33:31;98743.25;;;10.88;100.00
44457;BME280;30159;49.316;8.558;2024-02-26T10:35:59;98744.94;;;11.10;100.00
44457;BME280;30159;49.316;8.558;2024-02-26T10:38:27;98722.31;;;10.94;100.00
44457;BME280;30159;49.316;8.558;2024-02-26T10:40:53;98726.63;;;11.25;100.00
44457;BME280;30159;49.316;8.558;2024-02-26T10:43:20;98738.88;;;11.52;99.96
44457;BME280;30159;49.316;8.558;2024-02-26T10:45:47;98735.84;;;11.53;98.92
44457;BME280;30159;49.316;8.558;2024-02-26T10:48:14;98731.81;;;11.68;97.62
44457;BME280;30159;49.316;8.558;2024-02-26T10:50:42;98739.81;;;11.77;96.22
44457;BME280;30159;49.316;8.558;2024-02-26T10:53:13;98745.66;;;11.58;95.68
44457;BME280;30159;49.316;8.558;2024-02-26T10:55:46;98747.59;;;11.87;98.36
44457;BME280;30159;49.316;8.558;2024-02-26T10:58:14;98749.63;;;12.32;95.60
44457;BME280;30159;49.316;8.558;2024-02-26T11:00:43;98754.22;;;12.53;92.14
44457;BME280;30159;49.316;8.558;2024-02-26T11:03:11;98760.13;;;12.79;92.44
44457;BME280;30159;49.316;8.558;2024-02-26T11:05:40;98755.25;;;13.06;91.27
44457;BME280;30159;49.316;8.558;2024-02-26T11:08:08;98759.06;;;13.05;87.50
44457;BME280;30159;49.316;8.558;2024-02-26T11:10:36;98757.28;;;13.21;89.02
44457;BME280;30159;49.316;8.558;2024-02-26T11:13:05;98755.28;;;13.31;86.25
44457;BME280;30159;49.316;8.558;2024-02-26T11:15:32;98766.09;;;13.18;87.46
44457;BME280;30159;49.316;8.558;2024-02-26T11:17:59;98771.28;;;13.11;88.85
44457;BME280;30159;49.316;8.558;2024-02-26T11:20:28;98782.03;;;13.32;88.53
44457;BME280;30159;49.316;8.558;2024-02-26T11:22:56;98773.81;;;13.78;88.37
44457;BME280;30159;49.316;8.558;2024-02-26T11:25:22;98766.75;;;13.89;86.15
44457;BME280;30159;49.316;8.558;2024-02-26T11:27:52;98756.44;;;13.66;84.00
44457;BME280;30159;49.316;8.558;2024-02-26T11:30:24;98767.69;;;13.81;85.62
44457;BME280;30159;49.316;8.558;2024-02-26T11:32:52;98769.06;;;13.38;84.29
44457;BME280;30159;49.316;8.558;2024-02-26T11:35:19;98774.28;;;12.97;86.36
44457;BME280;30159;49.316;8.558;2024-02-26T11:38:04;98772.56;;;13.38;88.24
44457;BME280;30159;49.316;8.558;2024-02-26T11:40:32;98766.09;;;13.80;87.10
44457;BME280;30159;49.316;8.558;2024-02-26T11:42:59;98774.09;;;13.88;84.97
44457;BME280;30159;49.316;8.558;2024-02-26T11:45:50;98770.63;;;13.88;84.33
44457;BME280;30159;49.316;8.558;2024-02-26T11:48:21;98753.50;;;14.12;83.66
44457;BME280;30159;49.316;8.558;2024-02-26T11:50:49;98765.78;;;14.22;81.83
44457;BME280;30159;49.316;8.558;2024-02-26T11:53:20;98757.59;;;14.06;82.50
44457;BME280;30159;49.316;8.558;2024-02-26T11:55:47;98765.22;;;14.57;81.44
44457;BME280;30159;49.316;8.558;2024-02-26T11:58:14;98749.84;;;14.61;79.96
44457;BME280;30159;49.316;8.558;2024-02-26T12:00:40;98760.53;;;14.41;82.33
44457;BME280;30159;49.316;8.558;2024-02-26T12:03:08;98741.53;;;14.41;82.13
44457;BME280;30159;49.316;8.558;2024-02-26T12:05:37;98752.06;;;14.71;82.69
44457;BME280;30159;49.316;8.558;2024-02-26T12:08:06;98772.75;;;14.75;79.22
44457;BME280;30159;49.316;8.558;2024-02-26T12:10:35;98766.81;;;14.17;79.78
44457;BME280;30159;49.316;8.558;2024-02-26T12:13:06;98751.97;;;13.86;79.78
44457;BME280;30159;49.316;8.558;2024-02-26T12:15:36;98790.28;;;13.85;80.33
44457;BME280;30159;49.316;8.558;2024-02-26T12:18:05;98765.00;;;13.44;80.46
44457;BME280;30159;49.316;8.558;2024-02-26T12:20:34;98788.47;;;13.64;82.48
44457;BME280;30159;49.316;8.558;2024-02-26T12:23:02;98788.91;;;14.03;81.40
44457;BME280;30159;49.316;8.558;2024-02-26T12:25:30;98774.81;;;14.26;80.38
44457;BME280;30159;49.316;8.558;2024-02-26T12:27:57;98799.06;;;14.75;80.65
44457;BME280;30159;49.316;8.558;2024-02-26T12:30:24;98763.41;;;15.05;81.39
44457;BME280;30159;49.316;8.558;2024-02-26T12:32:53;98784.16;;;15.76;78.47
44457;BME280;30159;49.316;8.558;2024-02-26T12:35:22;98779.47;;;15.93;74.62
44457;BME280;30159;49.316;8.558;2024-02-26T12:37:52;98795.91;;;15.33;73.60
44457;BME280;30159;49.316;8.558;2024-02-26T12:40:20;98773.78;;;14.71;75.92
44457;BME280;30159;49.316;8.558;2024-02-26T12:42:47;98772.66;;;14.31;77.50
44457;BME280;30159;49.316;8.558;2024-02-26T12:45:15;98787.44;;;14.06;80.24
44457;BME280;30159;49.316;8.558;2024-02-26T12:47:42;98790.50;;;14.32;82.18
44457;BME280;30159;49.316;8.558;2024-02-26T12:50:11;98785.84;;;14.45;82.29
44457;BME280;30159;49.316;8.558;2024-02-26T12:52:40;98788.53;;;14.58;80.81
44457;BME280;30159;49.316;8.558;2024-02-26T12:55:09;98794.31;;;14.44;77.31
44457;BME280;30159;49.316;8.558;2024-02-26T12:57:38;98794.94;;;14.25;79.85
44457;BME280;30159;49.316;8.558;2024-02-26T13:00:07;98783.44;;;14.16;78.78